sensor_id;sensor_type;location;lat;lon;timestamp;temperature;humidity
67799;SHT30;54596;43.216;27.904;2023-05-07T00:01:35;14.36;64.76
67799;SHT30;54596;43.216;27.904;2023-05-07T00:04:01;14.39;65.18
67799;SHT30;54596;43.216;27.904;2023-05-07T00:06:27;14.32;65.46
67799;SHT30;54596;43.216;27.904;2023-05-07T00:08:54;14.33;65.64
67799;SHT30;54596;43.216;27.904;2023-05-07T00:11:19;14.25;66.06
67799;SHT30;54596;43.216;27.904;2023-05-07T00:13:48;14.25;66.34
67799;SHT30;54596;43.216;27.904;2023-05-07T00:16:13;14.21;66.61
67799;SHT30;54596;43.216;27.904;2023-05-07T00:18:39;14.17;66.86
67799;SHT30;54596;43.216;27.904;2023-05-07T00:21:04;14.15;67.10
67799;SHT30;54596;43.216;27.904;2023-05-07T00:23:30;14.14;67.20
67799;SHT30;54596;43.216;27.904;2023-05-07T00:25:56;14.10;67.43
67799;SHT30;54596;43.216;27.904;2023-05-07T00:28:21;14.12;67.54
67799;SHT30;54596;43.216;27.904;2023-05-07T00:30:47;14.10;67.69
67799;SHT30;54596;43.216;27.904;2023-05-07T00:33:12;14.02;67.99
67799;SHT30;54596;43.216;27.904;2023-05-07T00:35:38;14.00;68.17
67799;SHT30;54596;43.216;27.904;2023-05-07T00:38:03;14.01;68.34
67799;SHT30;54596;43.216;27.904;2023-05-07T00:40:29;13.97;68.47
67799;SHT30;54596;43.216;27.904;2023-05-07T00:42:54;13.90;68.62
67799;SHT30;54596;43.216;27.904;2023-05-07T00:45:24;13.88;68.80
67799;SHT30;54596;43.216;27.904;2023-05-07T00:47:51;13.84;68.95
67799;SHT30;54596;43.216;27.904;2023-05-07T00:50:16;13.87;69.00
67799;SHT30;54596;43.216;27.904;2023-05-07T00:52:42;13.80;69.21
67799;SHT30;54596;43.216;27.904;2023-05-07T00:55:07;13.83;69.17
67799;SHT30;54596;43.216;27.904;2023-05-07T00:57:36;13.80;69.21
67799;SHT30;54596;43.216;27.904;2023-05-07T01:00:06;13.81;69.09
67799;SHT30;54596;43.216;27.904;2023-05-07T01:02:33;13.78;69.14
67799;SHT30;54596;43.216;27.904;2023-05-07T01:05:00;13.80;69.11
67799;SHT30;54596;43.216;27.904;2023-05-07T01:07:26;13.78;69.22
67799;SHT30;54596;43.216;27.904;2023-05-07T01:09:52;13.76;69.08
67799;SHT30;54596;43.216;27.904;2023-05-07T01:12:18;13.78;68.85
67799;SHT30;54596;43.216;27.904;2023-05-07T01:14:44;13.78;68.96
67799;SHT30;54596;43.216;27.904;2023-05-07T01:17:10;13.74;68.96
67799;SHT30;54596;43.216;27.904;2023-05-07T01:19:35;13.73;68.97
67799;SHT30;54596;43.216;27.904;2023-05-07T01:22:07;13.74;68.89
67799;SHT30;54596;43.216;27.904;2023-05-07T01:24:33;13.76;68.74
67799;SHT30;54596;43.216;27.904;2023-05-07T01:27:00;13.70;68.84
67799;SHT30;54596;43.216;27.904;2023-05-07T01:29:27;13.70;68.77
67799;SHT30;54596;43.216;27.904;2023-05-07T01:31:52;13.73;68.54
67799;SHT30;54596;43.216;27.904;2023-05-07T01:34:19;13.69;68.52
67799;SHT30;54596;43.216;27.904;2023-05-07T01:36:46;13.65;68.44
67799;SHT30;54596;43.216;27.904;2023-05-07T01:39:13;13.67;68.45
67799;SHT30;54596;43.216;27.904;2023-05-07T01:41:39;13.63;68.43
67799;SHT30;54596;43.216;27.904;2023-05-07T01:44:05;13.62;68.42
67799;SHT30;54596;43.216;27.904;2023-05-07T01:46:31;13.57;68.57
67799;SHT30;54596;43.216;27.904;2023-05-07T01:48:56;13.62;68.11
67799;SHT30;54596;43.216;27.904;2023-05-07T01:51:22;13.66;67.94
67799;SHT30;54596;43.216;27.904;2023-05-07T01:53:48;13.62;68.07
67799;SHT30;54596;43.216;27.904;2023-05-07T01:56:17;13.59;68.18
67799;SHT30;54596;43.216;27.904;2023-05-07T01:58:44;13.60;67.99
67799;SHT30;54596;43.216;27.904;2023-05-07T02:01:11;13.55;68.05
67799;SHT30;54596;43.216;27.904;2023-05-07T02:03:36;13.57;68.13
67799;SHT30;54596;43.216;27.904;2023-05-07T02:06:02;13.60;68.16
67799;SHT30;54596;43.216;27.904;2023-05-07T02:08:27;13.59;68.24
67799;SHT30;54596;43.216;27.904;2023-05-07T02:10:53;13.50;68.48
67799;SHT30;54596;43.216;27.904;2023-05-07T02:13:19;13.52;68.53
67799;SHT30;54596;43.216;27.904;2023-05-07T02:15:45;13.52;68.38
67799;SHT30;54596;43.216;27.904;2023-05-07T02:18:15;13.53;68.29
67799;SHT30;54596;43.216;27.904;2023-05-07T02:20:41;13.55;68.19
67799;SHT30;54596;43.216;27.904;2023-05-07T02:23:06;13.49;68.17
67799;SHT30;54596;43.216;27.904;2023-05-07T02:25:32;13.42;68.33
67799;SHT30;54596;43.216;27.904;2023-05-07T02:27:57;13.38;68.42
67799;SHT30;54596;43.216;27.904;2023-05-07T02:30:23;13.32;68.54
67799;SHT30;54596;43.216;27.904;2023-05-07T02:32:48;13.32;68.62
67799;SHT30;54596;43.216;27.904;2023-05-07T02:35:15;13.29;68.57
67799;SHT30;54596;43.216;27.904;2023-05-07T02:37:42;13.26;68.51
67799;SHT30;54596;43.216;27.904;2023-05-07T02:40:08;13.23;68.84
67799;SHT30;54596;43.216;27.904;2023-05-07T02:42:33;13.21;68.88
67799;SHT30;54596;43.216;27.904;2023-05-07T02:44:59;13.32;68.71
67799;SHT30;54596;43.216;27.904;2023-05-07T02:47:24;13.28;68.65
67799;SHT30;54596;43.216;27.904;2023-05-07T02:49:53;13.34;68.59
67799;SHT30;54596;43.216;27.904;2023-05-07T02:52:18;13.23;68.76
67799;SHT30;54596;43.216;27.904;2023-05-07T02:54:44;13.26;68.66
67799;SHT30;54596;43.216;27.904;2023-05-07T02:57:09;13.22;68.91
67799;SHT30;54596;43.216;27.904;2023-05-07T02:59:35;13.19;68.95
67799;SHT30;54596;43.216;27.904;2023-05-07T03:02:00;13.25;68.42
67799;SHT30;54596;43.216;27.904;2023-05-07T03:04:26;13.29;68.31
67799;SHT30;54596;43.216;27.904;2023-05-07T03:06:51;13.23;68.49
67799;SHT30;54596;43.216;27.904;2023-05-07T03:09:17;13.26;68.28
67799;SHT30;54596;43.216;27.904;2023-05-07T03:11:42;13.21;68.47
67799;SHT30;54596;43.216;27.904;2023-05-07T03:14:08;13.19;68.54
67799;SHT30;54596;43.216;27.904;2023-05-07T03:16:33;13.21;68.55
67799;SHT30;54596;43.216;27.904;2023-05-07T03:18:59;13.23;68.54
67799;SHT30;54596;43.216;27.904;2023-05-07T03:21:24;13.25;68.27
67799;SHT30;54596;43.216;27.904;2023-05-07T03:23:51;13.32;68.23
67799;SHT30;54596;43.216;27.904;2023-05-07T03:26:17;13.36;67.79
67799;SHT30;54596;43.216;27.904;2023-05-07T03:28:42;13.36;67.88
67799;SHT30;54596;43.216;27.904;2023-05-07T03:31:08;13.34;68.12
67799;SHT30;54596;43.216;27.904;2023-05-07T03:33:34;13.45;67.68
67799;SHT30;54596;43.216;27.904;2023-05-07T03:36:00;13.48;67.79
67799;SHT30;54596;43.216;27.904;2023-05-07T03:38:26;13.50;67.39
67799;SHT30;54596;43.216;27.904;2023-05-07T03:40:51;13.50;67.34
67799;SHT30;54596;43.216;27.904;2023-05-07T03:43:17;13.50;67.50
67799;SHT30;54596;43.216;27.904;2023-05-07T03:45:42;13.55;67.68
67799;SHT30;54596;43.216;27.904;2023-05-07T03:48:08;13.55;67.40
67799;SHT30;54596;43.216;27.904;2023-05-07T03:50:33;13.71;66.81
67799;SHT30;54596;43.216;27.904;2023-05-07T03:52:59;13.70;67.33
67799;SHT30;54596;43.216;27.904;2023-05-07T03:55:25;13.81;67.05
67799;SHT30;54596;43.216;27.904;2023-05-07T03:57:51;13.93;66.70
67799;SHT30;54596;43.216;27.904;2023-05-07T04:00:17;14.35;65.75
67799;SHT30;54596;43.216;27.904;2023-05-07T04:02:42;14.63;65.30
67799;SHT30;54596;43.216;27.904;2023-05-07T04:05:08;15.24;63.64
67799;SHT30;54596;43.216;27.904;2023-05-07T04:07:33;15.71;62.40
67799;SHT30;54596;43.216;27.904;2023-05-07T04:09:59;15.88;61.77
67799;SHT30;54596;43.216;27.904;2023-05-07T04:12:24;15.78;61.98
67799;SHT30;54596;43.216;27.904;2023-05-07T04:14:50;16.00;61.50
67799;SHT30;54596;43.216;27.904;2023-05-07T04:17:15;16.05;60.38
67799;SHT30;54596;43.216;27.904;2023-05-07T04:19:41;16.12;60.49
67799;SHT30;54596;43.216;27.904;2023-05-07T04:22:10;16.18;60.59
67799;SHT30;54596;43.216;27.904;2023-05-07T04:24:36;16.23;60.20
67799;SHT30;54596;43.216;27.904;2023-05-07T04:27:02;16.53;59.37
67799;SHT30;54596;43.216;27.904;2023-05-07T04:29:27;16.70;59.16
67799;SHT30;54596;43.216;27.904;2023-05-07T04:31:53;16.94;58.35
67799;SHT30;54596;43.216;27.904;2023-05-07T04:34:21;17.40;57.27
67799;SHT30;54596;43.216;27.904;2023-05-07T04:36:47;17.37;57.43
67799;SHT30;54596;43.216;27.904;2023-05-07T04:39:13;17.49;57.35
67799;SHT30;54596;43.216;27.904;2023-05-07T04:41:38;17.80;56.79
67799;SHT30;54596;43.216;27.904;2023-05-07T04:44:04;17.70;56.56
67799;SHT30;54596;43.216;27.904;2023-05-07T04:46:30;17.70;56.69
67799;SHT30;54596;43.216;27.904;2023-05-07T04:48:55;17.98;56.23
67799;SHT30;54596;43.216;27.904;2023-05-07T04:51:21;18.60;55.06
67799;SHT30;54596;43.216;27.904;2023-05-07T04:53:47;19.19;53.45
67799;SHT30;54596;43.216;27.904;2023-05-07T04:56:13;19.49;53.35
67799;SHT30;54596;43.216;27.904;2023-05-07T04:58:38;19.92;52.33
67799;SHT30;54596;43.216;27.904;2023-05-07T05:01:04;20.58;50.93
67799;SHT30;54596;43.216;27.904;2023-05-07T05:03:30;20.77;50.43
67799;SHT30;54596;43.216;27.904;2023-05-07T05:05:55;21.05;50.29
67799;SHT30;54596;43.216;27.904;2023-05-07T05:08:24;21.75;48.54
67799;SHT30;54596;43.216;27.904;2023-05-07T05:10:50;22.30;47.61
67799;SHT30;54596;43.216;27.904;2023-05-07T05:13:16;22.40;47.61
67799;SHT30;54596;43.216;27.904;2023-05-07T05:15:41;23.58;46.02
67799;SHT30;54596;43.216;27.904;2023-05-07T05:18:07;23.96;44.92
67799;SHT30;54596;43.216;27.904;2023-05-07T05:20:32;22.69;45.98
67799;SHT30;54596;43.216;27.904;2023-05-07T05:22:58;24.05;44.63
67799;SHT30;54596;43.216;27.904;2023-05-07T05:25:23;25.55;42.34
67799;SHT30;54596;43.216;27.904;2023-05-07T05:27:49;26.89;40.79
67799;SHT30;54596;43.216;27.904;2023-05-07T05:30:14;26.52;40.22
67799;SHT30;54596;43.216;27.904;2023-05-07T05:32:40;27.54;39.38
67799;SHT30;54596;43.216;27.904;2023-05-07T05:35:05;27.23;41.51
67799;SHT30;54596;43.216;27.904;2023-05-07T05:37:31;27.93;38.68
67799;SHT30;54596;43.216;27.904;2023-05-07T05:39:57;28.00;38.40
67799;SHT30;54596;43.216;27.904;2023-05-07T05:42:22;27.41;38.46
67799;SHT30;54596;43.216;27.904;2023-05-07T05:44:48;28.38;37.57
67799;SHT30;54596;43.216;27.904;2023-05-07T05:47:14;27.23;38.24
67799;SHT30;54596;43.216;27.904;2023-05-07T05:49:39;27.00;38.81
67799;SHT30;54596;43.216;27.904;2023-05-07T05:52:05;27.07;38.36
67799;SHT30;54596;43.216;27.904;2023-05-07T05:54:30;27.07;38.73
67799;SHT30;54596;43.216;27.904;2023-05-07T05:56:56;26.68;39.18
67799;SHT30;54596;43.216;27.904;2023-05-07T05:59:22;26.71;38.43
67799;SHT30;54596;43.216;27.904;2023-05-07T06:01:47;26.62;38.44
67799;SHT30;54596;43.216;27.904;2023-05-07T06:04:13;26.29;39.32
67799;SHT30;54596;43.216;27.904;2023-05-07T06:06:38;26.09;39.36
67799;SHT30;54596;43.216;27.904;2023-05-07T06:09:04;25.81;40.23
67799;SHT30;54596;43.216;27.904;2023-05-07T06:11:31;26.21;39.25
67799;SHT30;54596;43.216;27.904;2023-05-07T06:13:56;26.88;38.65
67799;SHT30;54596;43.216;27.904;2023-05-07T06:16:22;28.65;36.72
67799;SHT30;54596;43.216;27.904;2023-05-07T06:18:47;29.13;36.05
67799;SHT30;54596;43.216;27.904;2023-05-07T06:21:14;29.19;35.09
67799;SHT30;54596;43.216;27.904;2023-05-07T06:23:40;29.55;35.35
67799;SHT30;54596;43.216;27.904;2023-05-07T06:26:06;28.98;35.10
67799;SHT30;54596;43.216;27.904;2023-05-07T06:28:32;28.92;35.87
67799;SHT30;54596;43.216;27.904;2023-05-07T06:31:17;27.85;37.32
67799;SHT30;54596;43.216;27.904;2023-05-07T06:33:45;27.75;37.24
67799;SHT30;54596;43.216;27.904;2023-05-07T06:36:11;27.66;37.60
67799;SHT30;54596;43.216;27.904;2023-05-07T06:38:37;27.45;37.18
67799;SHT30;54596;43.216;27.904;2023-05-07T06:41:02;26.67;38.60
67799;SHT30;54596;43.216;27.904;2023-05-07T06:43:28;27.54;37.55
67799;SHT30;54596;43.216;27.904;2023-05-07T06:45:53;28.57;36.41
67799;SHT30;54596;43.216;27.904;2023-05-07T06:48:19;27.72;36.64
67799;SHT30;54596;43.216;27.904;2023-05-07T06:50:44;28.85;35.82
67799;SHT30;54596;43.216;27.904;2023-05-07T06:53:10;29.14;35.66
67799;SHT30;54596;43.216;27.904;2023-05-07T06:55:36;29.39;35.24
67799;SHT30;54596;43.216;27.904;2023-05-07T06:58:03;29.96;34.73
67799;SHT30;54596;43.216;27.904;2023-05-07T07:00:30;31.24;33.22
67799;SHT30;54596;43.216;27.904;2023-05-07T07:02:56;31.21;33.21
67799;SHT30;54596;43.216;27.904;2023-05-07T07:05:21;30.82;33.54
67799;SHT30;54596;43.216;27.904;2023-05-07T07:07:47;31.61;32.67
67799;SHT30;54596;43.216;27.904;2023-05-07T07:10:21;31.90;32.31
67799;SHT30;54596;43.216;27.904;2023-05-07T07:12:48;31.41;32.59
67799;SHT30;54596;43.216;27.904;2023-05-07T07:15:14;31.97;32.07
67799;SHT30;54596;43.216;27.904;2023-05-07T07:17:40;31.96;32.60
67799;SHT30;54596;43.216;27.904;2023-05-07T07:20:06;31.92;32.33
67799;SHT30;54596;43.216;27.904;2023-05-07T07:22:32;31.90;32.35
67799;SHT30;54596;43.216;27.904;2023-05-07T07:24:57;31.88;31.75
67799;SHT30;54596;43.216;27.904;2023-05-07T07:27:23;30.40;33.06
67799;SHT30;54596;43.216;27.904;2023-05-07T07:29:48;30.05;33.77
67799;SHT30;54596;43.216;27.904;2023-05-07T07:32:14;31.04;33.06
67799;SHT30;54596;43.216;27.904;2023-05-07T07:34:39;30.57;33.46
67799;SHT30;54596;43.216;27.904;2023-05-07T07:37:05;31.94;32.28
67799;SHT30;54596;43.216;27.904;2023-05-07T07:39:35;32.72;31.02
67799;SHT30;54596;43.216;27.904;2023-05-07T07:42:02;32.02;31.54
67799;SHT30;54596;43.216;27.904;2023-05-07T07:44:29;31.83;31.94
67799;SHT30;54596;43.216;27.904;2023-05-07T07:46:55;32.00;31.48
67799;SHT30;54596;43.216;27.904;2023-05-07T07:49:20;31.58;31.42
67799;SHT30;54596;43.216;27.904;2023-05-07T07:51:46;29.88;32.57
67799;SHT30;54596;43.216;27.904;2023-05-07T07:54:12;30.35;32.61
67799;SHT30;54596;43.216;27.904;2023-05-07T07:56:37;30.06;33.07
67799;SHT30;54596;43.216;27.904;2023-05-07T07:59:03;29.88;32.38
67799;SHT30;54596;43.216;27.904;2023-05-07T08:01:31;30.42;32.18
67799;SHT30;54596;43.216;27.904;2023-05-07T08:03:57;30.27;31.55
67799;SHT30;54596;43.216;27.904;2023-05-07T08:06:25;29.43;31.88
67799;SHT30;54596;43.216;27.904;2023-05-07T08:08:51;29.10;32.95
67799;SHT30;54596;43.216;27.904;2023-05-07T08:11:17;29.78;31.43
67799;SHT30;54596;43.216;27.904;2023-05-07T08:13:43;29.83;32.12
67799;SHT30;54596;43.216;27.904;2023-05-07T08:16:08;29.44;32.20
67799;SHT30;54596;43.216;27.904;2023-05-07T08:18:34;28.52;31.70
67799;SHT30;54596;43.216;27.904;2023-05-07T08:21:00;27.72;31.64
67799;SHT30;54596;43.216;27.904;2023-05-07T08:23:26;27.85;32.26
67799;SHT30;54596;43.216;27.904;2023-05-07T08:25:51;27.95;36.14
67799;SHT30;54596;43.216;27.904;2023-05-07T08:28:17;26.88;40.62
67799;SHT30;54596;43.216;27.904;2023-05-07T08:30:45;25.93;34.22
67799;SHT30;54596;43.216;27.904;2023-05-07T08:33:11;26.17;34.57
67799;SHT30;54596;43.216;27.904;2023-05-07T08:35:37;25.55;39.67
67799;SHT30;54596;43.216;27.904;2023-05-07T08:38:02;25.78;43.21
67799;SHT30;54596;43.216;27.904;2023-05-07T08:40:28;25.13;43.80
67799;SHT30;54596;43.216;27.904;2023-05-07T08:42:55;23.46;46.51
67799;SHT30;54596;43.216;27.904;2023-05-07T08:45:22;23.78;46.64
67799;SHT30;54596;43.216;27.904;2023-05-07T08:47:51;23.95;46.84
67799;SHT30;54596;43.216;27.904;2023-05-07T08:50:18;22.92;47.63
67799;SHT30;54596;43.216;27.904;2023-05-07T08:52:43;22.19;48.94
67799;SHT30;54596;43.216;27.904;2023-05-07T08:55:09;22.87;47.63
67799;SHT30;54596;43.216;27.904;2023-05-07T08:57:35;22.58;49.07
67799;SHT30;54596;43.216;27.904;2023-05-07T09:00:01;22.75;49.67
67799;SHT30;54596;43.216;27.904;2023-05-07T09:02:28;22.84;49.44
67799;SHT30;54596;43.216;27.904;2023-05-07T09:04:53;22.24;49.33
67799;SHT30;54596;43.216;27.904;2023-05-07T09:07:20;21.79;48.57
67799;SHT30;54596;43.216;27.904;2023-05-07T09:09:46;21.57;49.26
67799;SHT30;54596;43.216;27.904;2023-05-07T09:12:11;21.93;49.92
67799;SHT30;54596;43.216;27.904;2023-05-07T09:14:44;22.23;49.31
67799;SHT30;54596;43.216;27.904;2023-05-07T09:17:09;21.82;49.87
67799;SHT30;54596;43.216;27.904;2023-05-07T09:19:35;21.79;49.22
67799;SHT30;54596;43.216;27.904;2023-05-07T09:22:02;21.53;49.67
67799;SHT30;54596;43.216;27.904;2023-05-07T09:24:28;21.30;49.00
67799;SHT30;54596;43.216;27.904;2023-05-07T09:26:59;21.23;49.32
67799;SHT30;54596;43.216;27.904;2023-05-07T09:29:25;21.06;50.04
67799;SHT30;54596;43.216;27.904;2023-05-07T09:31:51;20.25;51.50
67799;SHT30;54596;43.216;27.904;2023-05-07T09:34:16;20.10;52.82
67799;SHT30;54596;43.216;27.904;2023-05-07T09:36:42;20.25;53.67
67799;SHT30;54596;43.216;27.904;2023-05-07T09:39:07;20.17;54.15
67799;SHT30;54596;43.216;27.904;2023-05-07T09:41:33;19.91;54.47
67799;SHT30;54596;43.216;27.904;2023-05-07T09:44:08;19.82;54.46
67799;SHT30;54596;43.216;27.904;2023-05-07T09:46:35;19.68;55.97
67799;SHT30;54596;43.216;27.904;2023-05-07T09:49:02;20.04;55.74
67799;SHT30;54596;43.216;27.904;2023-05-07T09:51:41;20.22;56.06
67799;SHT30;54596;43.216;27.904;2023-05-07T09:54:07;20.00;57.28
67799;SHT30;54596;43.216;27.904;2023-05-07T09:56:33;19.68;59.05
67799;SHT30;54596;43.216;27.904;2023-05-07T09:59:00;19.68;59.61
67799;SHT30;54596;43.216;27.904;2023-05-07T10:01:26;19.60;60.66
67799;SHT30;54596;43.216;27.904;2023-05-07T10:03:53;19.27;61.51
67799;SHT30;54596;43.216;27.904;2023-05-07T10:06:20;19.49;62.66
67799;SHT30;54596;43.216;27.904;2023-05-07T10:08:46;19.33;62.53
67799;SHT30;54596;43.216;27.904;2023-05-07T10:11:13;19.11;63.01
67799;SHT30;54596;43.216;27.904;2023-05-07T10:13:40;19.22;61.89
67799;SHT30;54596;43.216;27.904;2023-05-07T10:16:06;19.12;64.05
67799;SHT30;54596;43.216;27.904;2023-05-07T10:18:33;18.87;64.21
67799;SHT30;54596;43.216;27.904;2023-05-07T10:21:07;18.63;66.39
67799;SHT30;54596;43.216;27.904;2023-05-07T10:23:33;18.64;65.36
67799;SHT30;54596;43.216;27.904;2023-05-07T10:26:02;18.10;65.31
67799;SHT30;54596;43.216;27.904;2023-05-07T10:28:31;18.34;67.05
67799;SHT30;54596;43.216;27.904;2023-05-07T10:33:40;18.33;68.44
67799;SHT30;54596;43.216;27.904;2023-05-07T10:36:06;18.09;69.95
67799;SHT30;54596;43.216;27.904;2023-05-07T10:38:33;17.43;71.38
67799;SHT30;54596;43.216;27.904;2023-05-07T10:40:58;17.55;71.71
67799;SHT30;54596;43.216;27.904;2023-05-07T10:43:24;17.75;72.09
67799;SHT30;54596;43.216;27.904;2023-05-07T10:46:09;17.71;71.76
67799;SHT30;54596;43.216;27.904;2023-05-07T10:51:30;17.66;71.54
67799;SHT30;54596;43.216;27.904;2023-05-07T10:56:41;17.50;70.80
67799;SHT30;54596;43.216;27.904;2023-05-07T11:01:59;17.87;67.98
67799;SHT30;54596;43.216;27.904;2023-05-07T11:04:25;18.01;67.59
67799;SHT30;54596;43.216;27.904;2023-05-07T11:10:05;18.10;67.12
67799;SHT30;54596;43.216;27.904;2023-05-07T11:15:08;18.23;66.71
67799;SHT30;54596;43.216;27.904;2023-05-07T11:17:34;17.98;68.46
67799;SHT30;54596;43.216;27.904;2023-05-07T11:20:01;17.66;69.43
67799;SHT30;54596;43.216;27.904;2023-05-07T11:22:37;17.54;70.63
67799;SHT30;54596;43.216;27.904;2023-05-07T11:25:06;17.35;71.32
67799;SHT30;54596;43.216;27.904;2023-05-07T11:27:32;17.20;71.82
67799;SHT30;54596;43.216;27.904;2023-05-07T11:29:58;17.08;71.55
67799;SHT30;54596;43.216;27.904;2023-05-07T11:32:28;16.82;73.41
67799;SHT30;54596;43.216;27.904;2023-05-07T11:34:56;17.07;71.49
67799;SHT30;54596;43.216;27.904;2023-05-07T11:37:38;17.15;72.51
67799;SHT30;54596;43.216;27.904;2023-05-07T11:40:11;17.15;71.83
67799;SHT30;54596;43.216;27.904;2023-05-07T11:42:44;16.81;72.84
67799;SHT30;54596;43.216;27.904;2023-05-07T11:45:26;16.84;73.57
67799;SHT30;54596;43.216;27.904;2023-05-07T11:48:01;16.77;74.08
67799;SHT30;54596;43.216;27.904;2023-05-07T11:51:04;16.61;73.25
67799;SHT30;54596;43.216;27.904;2023-05-07T11:53:44;16.84;72.55
67799;SHT30;54596;43.216;27.904;2023-05-07T11:56:16;16.88;72.38
67799;SHT30;54596;43.216;27.904;2023-05-07T11:59:10;16.70;72.64
67799;SHT30;54596;43.216;27.904;2023-05-07T12:01:44;16.70;72.53
67799;SHT30;54596;43.216;27.904;2023-05-07T12:04:26;16.67;71.91
67799;SHT30;54596;43.216;27.904;2023-05-07T12:07:17;16.68;71.07
67799;SHT30;54596;43.216;27.904;2023-05-07T12:09:59;16.39;72.08
67799;SHT30;54596;43.216;27.904;2023-05-07T12:12:52;16.53;71.57
67799;SHT30;54596;43.216;27.904;2023-05-07T12:15:34;16.61;71.17
67799;SHT30;54596;43.216;27.904;2023-05-07T12:18:11;16.46;70.48
67799;SHT30;54596;43.216;27.904;2023-05-07T12:20:44;16.66;69.79
67799;SHT30;54596;43.216;27.904;2023-05-07T12:26:49;16.60;69.60
67799;SHT30;54596;43.216;27.904;2023-05-07T12:29:31;16.71;70.56
67799;SHT30;54596;43.216;27.904;2023-05-07T12:32:11;16.75;69.40
67799;SHT30;54596;43.216;27.904;2023-05-07T12:34:54;16.71;69.49
67799;SHT30;54596;43.216;27.904;2023-05-07T12:41:19;16.80;67.57
67799;SHT30;54596;43.216;27.904;2023-05-07T12:44:10;16.61;67.18
67799;SHT30;54596;43.216;27.904;2023-05-07T12:46:39;16.82;67.66
67799;SHT30;54596;43.216;27.904;2023-05-07T12:49:22;16.84;67.64
67799;SHT30;54596;43.216;27.904;2023-05-07T12:52:02;16.89;67.39
67799;SHT30;54596;43.216;27.904;2023-05-07T12:54:53;16.75;65.14
67799;SHT30;54596;43.216;27.904;2023-05-07T12:57:26;16.84;65.56
67799;SHT30;54596;43.216;27.904;2023-05-07T13:00:20;16.71;65.73
67799;SHT30;54596;43.216;27.904;2023-05-07T13:05:47;16.80;65.07
67799;SHT30;54596;43.216;27.904;2023-05-07T13:08:39;16.59;66.50
67799;SHT30;54596;43.216;27.904;2023-05-07T13:11:22;16.77;65.76
67799;SHT30;54596;43.216;27.904;2023-05-07T13:14:03;16.70;67.67
67799;SHT30;54596;43.216;27.904;2023-05-07T13:16:46;16.70;68.16
67799;SHT30;54596;43.216;27.904;2023-05-07T13:19:43;16.50;68.12
67799;SHT30;54596;43.216;27.904;2023-05-07T13:22:22;16.71;67.15
67799;SHT30;54596;43.216;27.904;2023-05-07T13:25:11;16.88;66.92
67799;SHT30;54596;43.216;27.904;2023-05-07T13:27:44;16.80;67.31
67799;SHT30;54596;43.216;27.904;2023-05-07T13:30:20;16.82;66.69
67799;SHT30;54596;43.216;27.904;2023-05-07T13:32:56;16.88;66.92
67799;SHT30;54596;43.216;27.904;2023-05-07T13:35:35;16.92;65.49
67799;SHT30;54596;43.216;27.904;2023-05-07T13:38:19;16.87;65.36
67799;SHT30;54596;43.216;27.904;2023-05-07T13:40:49;16.84;64.49
67799;SHT30;54596;43.216;27.904;2023-05-07T13:43:42;16.80;65.88
67799;SHT30;54596;43.216;27.904;2023-05-07T13:46:39;16.88;66.06
67799;SHT30;54596;43.216;27.904;2023-05-07T13:49:25;16.49;65.96
67799;SHT30;54596;43.216;27.904;2023-05-07T13:52:45;16.39;67.80
67799;SHT30;54596;43.216;27.904;2023-05-07T13:55:48;16.34;68.60
67799;SHT30;54596;43.216;27.904;2023-05-07T13:58:31;16.23;68.13
67799;SHT30;54596;43.216;27.904;2023-05-07T14:01:08;16.46;67.84
67799;SHT30;54596;43.216;27.904;2023-05-07T14:04:26;16.16;68.81
67799;SHT30;54596;43.216;27.904;2023-05-07T14:07:02;16.22;68.93
67799;SHT30;54596;43.216;27.904;2023-05-07T14:09:51;16.11;69.10
67799;SHT30;54596;43.216;27.904;2023-05-07T14:13:14;16.01;69.65
67799;SHT30;54596;43.216;27.904;2023-05-07T14:16:19;16.01;69.18
67799;SHT30;54596;43.216;27.904;2023-05-07T14:19:16;16.13;68.65
67799;SHT30;54596;43.216;27.904;2023-05-07T14:22:31;16.25;68.97
67799;SHT30;54596;43.216;27.904;2023-05-07T14:25:38;16.25;68.29
67799;SHT30;54596;43.216;27.904;2023-05-07T14:28:32;16.13;68.98
67799;SHT30;54596;43.216;27.904;2023-05-07T14:31:14;16.06;69.16
67799;SHT30;54596;43.216;27.904;2023-05-07T14:36:56;15.98;69.30
67799;SHT30;54596;43.216;27.904;2023-05-07T14:39:25;15.95;69.07
67799;SHT30;54596;43.216;27.904;2023-05-07T14:41:51;15.97;69.08
67799;SHT30;54596;43.216;27.904;2023-05-07T14:44:17;15.97;68.38
67799;SHT30;54596;43.216;27.904;2023-05-07T14:46:42;15.80;68.19
67799;SHT30;54596;43.216;27.904;2023-05-07T14:49:08;15.85;68.74
67799;SHT30;54596;43.216;27.904;2023-05-07T14:51:42;15.94;68.54
67799;SHT30;54596;43.216;27.904;2023-05-07T14:54:08;16.01;68.06
67799;SHT30;54596;43.216;27.904;2023-05-07T14:56:34;16.00;67.64
67799;SHT30;54596;43.216;27.904;2023-05-07T14:59:02;15.98;68.38
67799;SHT30;54596;43.216;27.904;2023-05-07T15:01:28;15.94;68.36
67799;SHT30;54596;43.216;27.904;2023-05-07T15:03:53;15.98;68.31
67799;SHT30;54596;43.216;27.904;2023-05-07T15:06:19;15.93;68.61
67799;SHT30;54596;43.216;27.904;2023-05-07T15:08:44;16.01;67.91
67799;SHT30;54596;43.216;27.904;2023-05-07T15:11:10;16.00;68.03
67799;SHT30;54596;43.216;27.904;2023-05-07T15:13:35;15.98;68.19
67799;SHT30;54596;43.216;27.904;2023-05-07T15:16:00;15.95;68.80
67799;SHT30;54596;43.216;27.904;2023-05-07T15:18:26;15.84;69.19
67799;SHT30;54596;43.216;27.904;2023-05-07T15:20:51;15.88;69.21
67799;SHT30;54596;43.216;27.904;2023-05-07T15:23:17;15.88;70.65
67799;SHT30;54596;43.216;27.904;2023-05-07T15:25:43;15.87;70.10
67799;SHT30;54596;43.216;27.904;2023-05-07T15:28:08;15.68;70.84
67799;SHT30;54596;43.216;27.904;2023-05-07T15:30:33;15.67;70.78
67799;SHT30;54596;43.216;27.904;2023-05-07T15:32:59;15.61;71.06
67799;SHT30;54596;43.216;27.904;2023-05-07T15:35:25;15.46;72.07
67799;SHT30;54596;43.216;27.904;2023-05-07T15:37:51;15.47;72.86
67799;SHT30;54596;43.216;27.904;2023-05-07T15:40:17;15.53;73.41
67799;SHT30;54596;43.216;27.904;2023-05-07T15:42:44;15.54;73.75
67799;SHT30;54596;43.216;27.904;2023-05-07T15:45:10;15.44;74.10
67799;SHT30;54596;43.216;27.904;2023-05-07T15:47:36;15.49;74.61
67799;SHT30;54596;43.216;27.904;2023-05-07T15:50:02;15.47;74.45
67799;SHT30;54596;43.216;27.904;2023-05-07T15:52:28;15.44;73.89
67799;SHT30;54596;43.216;27.904;2023-05-07T15:54:57;15.26;74.73
67799;SHT30;54596;43.216;27.904;2023-05-07T15:57:23;15.19;74.45
67799;SHT30;54596;43.216;27.904;2023-05-07T15:59:49;15.21;75.73